Time;durP1;ratioP1;P1;durP2;ratioP2;P2;SDS_P1;SDS_P2;PMS_P1;PMS_P2;Temp;Humidity;BMP_temperature;BMP_pressure;BME280_temperature;BME280_humidity;BME280_pressure;Samples;Min_cycle;Max_cycle;Signal;HPM_P1;HPM_P2
2022/12/14 00:01:26;;;;;;;19.40;7.25;;;;;;;-3.61;79.51;100257.22;4946167;28;20035;-79
2022/12/14 00:03:53;;;;;;;18.10;8.18;;;;;;;-3.49;79.01;100252.41;4943576;28;20050;-79
2022/12/14 00:06:26;;;;;;;19.80;8.05;;;;;;;-3.60;79.34;100245.34;4959607;28;20069;-78
2022/12/14 00:08:54;;;;;;;18.63;7.57;;;;;;;-3.65;79.74;100227.03;4944966;28;20646;-80
2022/12/14 00:11:21;;;;;;;18.40;7.95;;;;;;;-3.56;78.69;100229.06;4940568;28;20031;-80
2022/12/14 00:13:50;;;;;;;24.25;7.80;;;;;;;-3.63;78.79;100213.38;4941676;28;20079;-78
2022/12/14 00:16:17;;;;;;;16.95;7.53;;;;;;;-3.42;77.86;100224.13;4957776;28;20035;-79
2022/12/14 00:18:43;;;;;;;19.48;7.97;;;;;;;-3.40;77.08;100222.31;4943323;28;20094;-80
2022/12/14 00:21:11;;;;;;;19.95;8.25;;;;;;;-3.42;76.37;100213.16;4947052;28;20047;-79
2022/12/14 00:23:39;;;;;;;19.75;7.90;;;;;;;-3.51;77.61;100206.84;4941283;28;20040;-79
2022/12/14 00:26:14;;;;;;;17.67;7.50;;;;;;;-3.39;76.64;100206.22;4943759;28;20039;-79
2022/12/14 00:28:41;;;;;;;16.25;6.82;;;;;;;-3.33;76.97;100205.88;4943319;28;20050;-79
2022/12/14 00:31:07;;;;;;;16.95;6.95;;;;;;;-3.44;77.22;100205.63;4946503;28;20592;-79
2022/12/14 00:33:34;;;;;;;20.55;7.97;;;;;;;-3.31;76.13;100195.66;4930040;28;20047;-80
2022/12/14 00:36:00;;;;;;;16.85;7.25;;;;;;;-3.32;75.40;100194.81;4960243;28;20082;-79
2022/12/14 00:38:25;;;;;;;18.42;7.28;;;;;;;-3.26;75.24;100192.88;4947744;28;20062;-79
2022/12/14 00:40:52;;;;;;;20.38;7.47;;;;;;;-3.26;75.37;100195.41;4946949;28;20508;-79
2022/12/14 00:43:18;;;;;;;15.20;6.68;;;;;;;-3.22;75.47;100195.19;4967209;28;20125;-80
2022/12/14 00:45:44;;;;;;;18.33;7.32;;;;;;;-3.31;75.25;100200.75;4950393;28;20101;-79
2022/12/14 00:48:10;;;;;;;18.02;6.82;;;;;;;-3.24;75.41;100193.59;4949966;28;20073;-79
2022/12/14 00:50:36;;;;;;;16.95;7.05;;;;;;;-3.30;75.50;100181.25;4947542;28;20043;-80
2022/12/14 00:53:01;;;;;;;20.55;7.50;;;;;;;-3.34;75.58;100186.50;4937475;28;20047;-77
2022/12/14 00:55:27;;;;;;;15.80;7.13;;;;;;;-3.30;75.60;100187.16;4952696;28;20030;-79
2022/12/14 00:57:52;;;;;;;16.40;6.90;;;;;;;-3.32;75.15;100179.63;4963561;28;20047;-78
2022/12/14 01:00:18;;;;;;;17.33;7.10;;;;;;;-3.15;74.39;100188.03;4944995;28;20534;-80
2022/12/14 01:02:43;;;;;;;14.23;6.40;;;;;;;-3.12;74.04;100180.28;4948179;28;20035;-80
2022/12/14 01:05:10;;;;;;;16.63;6.82;;;;;;;-3.13;74.17;100176.94;4947196;28;20118;-79
2022/12/14 01:07:36;;;;;;;17.05;6.40;;;;;;;-3.14;74.56;100174.47;4927693;28;20118;-80
2022/12/14 01:10:02;;;;;;;16.13;6.35;;;;;;;-3.21;75.06;100170.63;4966037;28;20224;-80
2022/12/14 01:12:27;;;;;;;16.92;7.35;;;;;;;-3.10;74.58;100165.78;4945377;28;20035;-79
2022/12/14 01:14:53;;;;;;;16.55;6.90;;;;;;;-3.05;75.03;100165.53;4946618;28;20038;-79
2022/12/14 01:17:18;;;;;;;16.88;6.72;;;;;;;-3.15;74.83;100150.00;4944535;28;20042;-78
2022/12/14 01:19:44;;;;;;;15.88;7.05;;;;;;;-3.13;74.54;100155.78;4948956;28;20051;-79
2022/12/14 01:22:09;;;;;;;16.48;6.45;;;;;;;-3.11;74.57;100146.38;4964335;28;20023;-80
2022/12/14 01:24:35;;;;;;;18.55;7.30;;;;;;;-3.11;74.30;100143.84;4945135;28;20042;-80
2022/12/14 01:27:00;;;;;;;15.82;6.60;;;;;;;-3.08;74.15;100138.63;4952895;28;20051;-80
2022/12/14 01:29:26;;;;;;;16.80;6.97;;;;;;;-3.11;73.57;100143.84;4941773;28;20043;-79
2022/12/14 01:31:52;;;;;;;25.15;6.68;;;;;;;-3.08;73.38;100143.69;4942024;28;20038;-79
2022/12/14 01:34:17;;;;;;;18.73;7.25;;;;;;;-3.10;73.87;100139.63;4959196;28;20066;-79
2022/12/14 01:36:43;;;;;;;20.20;6.85;;;;;;;-3.15;73.71;100142.38;4943460;28;20585;-79
2022/12/14 01:39:14;;;;;;;16.52;6.78;;;;;;;-3.15;73.77;100130.50;4940999;28;20535;-79
2022/12/14 01:41:48;;;;;;;16.88;7.45;;;;;;;-3.20;73.70;100135.03;4970982;28;20067;-79
2022/12/14 01:44:17;;;;;;;18.90;6.65;;;;;;;-3.20;73.22;100127.44;4941229;28;20043;-79
2022/12/14 01:47:01;;;;;;;16.67;6.32;;;;;;;-3.28;74.06;100128.75;4945022;28;20043;-79
2022/12/14 01:49:32;;;;;;;17.55;6.53;;;;;;;-3.21;73.86;100114.84;4957886;28;20117;-79
2022/12/14 01:52:06;;;;;;;14.75;5.70;;;;;;;-3.20;73.27;100113.91;4951606;28;20901;-79
2022/12/14 01:54:36;;;;;;;18.42;6.45;;;;;;;-3.27;73.79;100105.84;4947803;28;20093;-79
2022/12/14 01:57:02;;;;;;;14.52;6.20;;;;;;;-3.24;73.49;100100.59;4947306;28;20094;-80
2022/12/14 01:59:35;;;;;;;18.35;6.95;;;;;;;-3.18;73.01;100095.19;4947694;28;20043;-80
2022/12/14 02:02:05;;;;;;;17.50;6.53;;;;;;;-3.34;74.01;100097.75;4946147;28;20237;-79
2022/12/14 02:04:33;;;;;;;15.45;6.72;;;;;;;-3.43;74.94;100097.44;4945347;28;20114;-79
2022/12/14 02:06:59;;;;;;;15.05;6.38;;;;;;;-3.48;74.97;100096.84;4948290;28;20035;-79
2022/12/14 02:09:29;;;;;;;16.45;6.75;;;;;;;-3.53;75.44;100102.19;4946242;28;20180;-79
2022/12/14 02:12:03;;;;;;;16.58;5.90;;;;;;;-3.54;75.71;100092.97;4979597;28;20039;-78
2022/12/14 02:14:29;;;;;;;14.45;6.10;;;;;;;-3.54;75.94;100098.84;4945336;28;20058;-79
2022/12/14 02:16:56;;;;;;;16.10;6.65;;;;;;;-3.57;76.55;100100.72;4944738;28;20047;-80
2022/12/14 02:19:21;;;;;;;16.77;6.68;;;;;;;-3.55;76.24;100104.78;4947399;28;20035;-79
2022/12/14 02:21:54;;;;;;;14.88;5.82;;;;;;;-3.49;75.78;100101.09;4947019;28;20050;-79
2022/12/14 02:24:50;;;;;;;17.45;6.72;;;;;;;-3.45;74.74;100094.97;4942858;28;20097;-80
2022/12/14 02:27:49;;;;;;;18.85;6.47;;;;;;;-3.45;74.94;100092.44;4942266;28;20081;-79
2022/12/14 02:30:20;;;;;;;17.25;6.85;;;;;;;-3.41;74.80;100099.00;4943708;28;20065;-79
2022/12/14 02:33:05;;;;;;;14.18;6.43;;;;;;;-3.37;74.20;100092.84;4942558;28;20729;-79
2022/12/14 02:35:31;;;;;;;13.50;5.88;;;;;;;-3.38;75.13;100087.84;4956286;28;20035;-80
2022/12/14 02:38:32;;;;;;;15.30;6.32;;;;;;;-3.40;74.08;100090.47;4958685;28;20135;-79
2022/12/14 02:41:16;;;;;;;14.25;5.97;;;;;;;-3.54;75.25;100080.28;4955377;28;20041;-79
2022/12/14 02:43:53;;;;;;;15.10;6.72;;;;;;;-3.43;74.89;100084.75;4947175;28;20058;-79
2022/12/14 02:47:03;;;;;;;16.85;6.25;;;;;;;-3.50;75.47;100074.16;4946551;28;20047;-80
2022/12/14 02:50:07;;;;;;;18.38;6.90;;;;;;;-3.44;75.37;100070.44;4943722;28;20050;-79
2022/12/14 02:52:35;;;;;;;16.20;6.40;;;;;;;-3.45;75.02;100058.66;4938615;28;20755;-79
2022/12/14 02:55:24;;;;;;;18.08;6.18;;;;;;;-3.39;74.64;100060.84;4948712;28;20050;-79
2022/12/14 02:57:57;;;;;;;15.40;6.75;;;;;;;-3.47;75.15;100057.94;4948195;28;20114;-81
2022/12/14 03:00:24;;;;;;;15.73;6.43;;;;;;;-3.48;74.77;100051.22;4965610;28;20480;-80
2022/12/14 03:02:51;;;;;;;17.05;6.68;;;;;;;-3.61;75.00;100031.63;4925098;28;20046;-78
2022/12/14 03:05:16;;;;;;;14.52;6.25;;;;;;;-3.59;75.52;100026.47;4950873;28;20034;-79
2022/12/14 03:07:49;;;;;;;15.10;5.53;;;;;;;-3.68;76.78;100034.59;4942573;28;20062;-80
2022/12/14 03:10:49;;;;;;;12.68;5.97;;;;;;;-3.77;77.97;100039.25;4965540;28;20042;-80
2022/12/14 03:13:36;;;;;;;17.45;6.50;;;;;;;-3.86;78.89;100032.16;4959838;28;20055;-79
2022/12/14 03:16:27;;;;;;;15.98;6.68;;;;;;;-3.72;78.45;100033.94;4942504;28;20043;-79
2022/12/14 03:19:06;;;;;;;22.40;6.65;;;;;;;-3.77;78.31;100041.78;4957359;28;20040;-80
2022/12/14 03:21:38;;;;;;;14.93;6.03;;;;;;;-3.85;78.25;100038.84;4942376;28;20171;-80
2022/12/14 03:24:12;;;;;;;14.30;5.78;;;;;;;-3.80;77.86;100046.22;4952121;28;20497;-80
2022/12/14 03:26:44;;;;;;;14.43;6.15;;;;;;;-3.80;77.79;100046.22;4946150;28;20043;-78
2022/12/14 03:29:17;;;;;;;15.70;6.35;;;;;;;-3.92;78.44;100040.91;4942437;28;20168;-79
2022/12/14 03:31:49;;;;;;;17.23;6.32;;;;;;;-3.88;78.57;100044.09;4945676;28;20046;-80
2022/12/14 03:34:20;;;;;;;13.75;6.20;;;;;;;-3.78;78.65;100041.88;4942990;28;20082;-80
2022/12/14 03:36:55;;;;;;;17.15;6.97;;;;;;;-3.67;78.15;100044.66;4940583;28;20063;-80
2022/12/14 03:39:31;;;;;;;17.42;6.10;;;;;;;-3.71;77.54;100035.56;4943978;28;20849;-79
2022/12/14 03:42:01;;;;;;;19.65;6.18;;;;;;;-3.69;76.94;100051.50;4940589;28;20034;-79
2022/12/14 03:44:36;;;;;;;16.70;6.00;;;;;;;-3.67;77.26;100057.31;4940918;28;20513;-80
2022/12/14 03:47:32;;;;;;;16.17;6.85;;;;;;;-3.75;77.37;100046.75;4944590;28;20042;-80
2022/12/14 03:50:00;;;;;;;14.38;5.90;;;;;;;-3.87;78.15;100040.63;4920785;29;20052;-80
2022/12/14 03:52:29;;;;;;;13.35;5.82;;;;;;;-3.91;78.70;100036.63;4926901;28;20039;-80
2022/12/14 03:55:13;;;;;;;16.00;6.68;;;;;;;-3.94;79.42;100042.69;4940337;28;20400;-80
2022/12/14 03:58:05;;;;;;;13.10;6.13;;;;;;;-3.96;79.78;100043.66;4938498;28;20548;-80
2022/12/14 04:00:46;;;;;;;15.88;6.82;;;;;;;-3.95;80.62;100032.63;4939867;28;20035;-80
2022/12/14 04:03:43;;;;;;;16.20;7.13;;;;;;;-3.95;80.99;100030.91;4943575;28;20432;-79
2022/12/14 04:06:47;;;;;;;14.63;5.97;;;;;;;-3.95;80.61;100030.09;4943164;28;20130;-78
2022/12/14 04:09:36;;;;;;;19.40;6.75;;;;;;;-3.92;81.31;100023.16;4946791;28;20645;-78
2022/12/14 04:20:41;;;;;;;17.13;7.35;;;;;;;-4.01;84.51;100012.69;4946735;28;20031;-79
2022/12/14 04:26:03;;;;;;;14.27;6.32;;;;;;;-4.06;84.77;100007.88;4943742;28;20159;-80
2022/12/14 04:26:08;;;;;;;15.10;5.75;;;;;;;-4.08;85.03;100007.13;4945959;28;20046;-79
2022/12/14 04:31:48;;;;;;;15.80;6.97;;;;;;;-4.04;85.17;100000.19;4927834;29;20067;-79
2022/12/14 04:34:17;;;;;;;17.23;6.72;;;;;;;-4.03;85.18;100005.19;4939729;28;20047;-79
2022/12/14 04:37:02;;;;;;;16.63;6.40;;;;;;;-3.94;85.32;99994.56;4946585;28;20796;-79
2022/12/14 04:39:49;;;;;;;20.00;5.90;;;;;;;-4.02;85.01;99996.66;4945543;28;20046;-79
2022/12/14 04:42:16;;;;;;;17.17;6.80;;;;;;;-4.03;85.01;99999.28;4943427;28;20053;-78
2022/12/14 04:44:47;;;;;;;17.83;6.15;;;;;;;-4.02;84.34;99993.34;4941793;28;20101;-79
2022/12/14 04:47:16;;;;;;;17.42;6.47;;;;;;;-3.81;82.68;99989.63;4953569;28;20076;-78
2022/12/14 04:49:49;;;;;;;14.50;6.40;;;;;;;-3.91;83.23;99981.72;4945488;28;20036;-79
2022/12/14 04:52:33;;;;;;;15.90;6.47;;;;;;;-3.91;83.08;99986.78;4973675;28;20397;-78
2022/12/14 04:55:01;;;;;;;15.75;6.88;;;;;;;-3.88;83.26;99984.97;4946781;28;20047;-79
2022/12/14 04:57:41;;;;;;;15.35;5.88;;;;;;;-3.92;83.47;99971.66;4946090;28;20079;-79
2022/12/14 05:00:08;;;;;;;18.50;6.43;;;;;;;-3.78;82.59;99979.34;4948486;28;21812;-78
2022/12/14 05:02:45;;;;;;;17.40;6.15;;;;;;;-3.79;82.13;99972.63;4956095;28;20050;-79
2022/12/14 05:05:25;;;;;;;17.50;6.70;;;;;;;-3.78;81.92;99971.72;4945934;28;20044;-79
2022/12/14 05:08:29;;;;;;;13.18;5.93;;;;;;;-3.72;81.66;99968.03;4943183;28;20126;-78
2022/12/14 05:11:05;;;;;;;13.55;6.18;;;;;;;-3.58;80.76;99962.19;4941464;28;20043;-78
2022/12/14 05:13:39;;;;;;;21.27;6.63;;;;;;;-3.60;80.72;99957.25;4956346;28;20047;-79
2022/12/14 05:16:06;;;;;;;15.52;6.22;;;;;;;-3.64;80.93;99958.28;4940173;28;20145;-80
2022/12/14 05:18:35;;;;;;;13.88;6.07;;;;;;;-3.58;80.69;99944.44;4977116;28;20035;-79
2022/12/14 05:21:01;;;;;;;14.48;5.63;;;;;;;-3.69;80.79;99940.00;4965775;28;20535;-79
2022/12/14 05:23:26;;;;;;;16.98;6.63;;;;;;;-3.58;80.51;99937.69;4948480;28;20051;-79
2022/12/14 05:25:52;;;;;;;17.60;6.20;;;;;;;-3.50;80.38;99934.72;4940293;28;20043;-79
2022/12/14 05:28:18;;;;;;;15.13;6.13;;;;;;;-3.49;79.29;99918.59;4943286;28;20039;-79
2022/12/14 05:30:43;;;;;;;13.40;6.45;;;;;;;-3.50;79.68;99923.75;4946034;28;20035;-79
2022/12/14 05:33:18;;;;;;;18.25;6.60;;;;;;;-3.54;80.25;99925.66;4942071;28;20040;-79
2022/12/14 05:35:44;;;;;;;17.17;5.72;;;;;;;-3.56;80.05;99918.13;4943948;28;20034;-79
2022/12/14 05:38:09;;;;;;;17.10;5.80;;;;;;;-3.53;79.83;99923.00;4942809;28;20039;-80
2022/12/14 05:40:34;;;;;;;15.00;5.85;;;;;;;-3.42;79.26;99919.88;4976240;28;20038;-79
2022/12/14 05:43:09;;;;;;;15.45;5.97;;;;;;;-3.49;79.30;99917.78;4946035;28;20488;-79
2022/12/14 05:45:35;;;;;;;14.30;5.55;;;;;;;-3.27;77.93;99912.31;4976972;28;20276;-80
2022/12/14 05:48:00;;;;;;;14.45;6.03;;;;;;;-3.32;77.86;99917.63;4945407;28;20536;-79
2022/12/14 05:50:26;;;;;;;20.35;6.00;;;;;;;-3.37;78.38;99912.00;4953124;28;20031;-79
2022/12/14 05:52:52;;;;;;;16.38;6.25;;;;;;;-3.31;77.72;99896.44;4926048;28;20036;-79
2022/12/14 05:55:17;;;;;;;13.07;5.82;;;;;;;-3.35;77.72;99905.13;4964607;28;20581;-79
2022/12/14 05:57:43;;;;;;;15.48;5.53;;;;;;;-3.30;77.21;99902.31;4930516;28;20039;-79
2022/12/14 06:00:10;;;;;;;13.90;5.75;;;;;;;-3.32;78.00;99902.41;4948144;28;20238;-80
2022/12/14 06:02:35;;;;;;;14.80;5.95;;;;;;;-3.33;78.01;99909.22;4955145;28;20046;-81
2022/12/14 06:05:00;;;;;;;16.67;6.47;;;;;;;-3.33;77.48;99909.22;4947463;28;20105;-78
2022/12/14 06:07:26;;;;;;;13.73;5.55;;;;;;;-3.32;77.51;99915.91;4944926;28;20039;-79
2022/12/14 06:09:51;;;;;;;14.93;5.70;;;;;;;-3.42;77.60;99909.72;4947105;28;20038;-79
2022/12/14 06:12:17;;;;;;;15.02;6.72;;;;;;;-3.32;77.06;99903.22;4978987;28;20043;-80
2022/12/14 06:14:42;;;;;;;19.60;6.22;;;;;;;-3.37;78.00;99912.81;4940705;28;20424;-80
2022/12/14 06:17:08;;;;;;;13.35;5.85;;;;;;;-3.34;77.32;99899.97;4947920;28;20039;-81
2022/12/14 06:19:33;;;;;;;14.88;5.95;;;;;;;-3.39;77.86;99901.13;4950505;28;20037;-79
2022/12/14 06:22:00;;;;;;;13.85;6.18;;;;;;;-3.32;77.57;99902.41;4937463;28;20124;-80
2022/12/14 06:24:25;;;;;;;13.30;5.60;;;;;;;-3.18;77.57;99904.97;4952568;28;20039;-80
2022/12/14 06:26:51;;;;;;;15.93;6.20;;;;;;;-3.28;76.89;99893.72;4944995;28;20045;-79
2022/12/14 06:29:18;;;;;;;14.13;6.28;;;;;;;-3.33;77.41;99908.41;4959713;28;20047;-79
2022/12/14 06:31:44;;;;;;;14.05;5.38;;;;;;;-3.35;77.65;99893.28;4949650;28;20788;-80
2022/12/14 06:34:10;;;;;;;17.50;6.75;;;;;;;-3.20;76.72;99900.88;4960979;28;20070;-79
2022/12/14 06:36:38;;;;;;;14.02;6.30;;;;;;;-3.18;76.42;99901.63;4960762;28;20066;-79
2022/12/14 06:39:06;;;;;;;15.43;6.55;;;;;;;-3.20;76.71;99899.16;4958331;28;20637;-80
2022/12/14 06:41:32;;;;;;;15.23;6.50;;;;;;;-3.09;76.52;99900.25;4951949;28;20790;-79
2022/12/14 06:44:05;;;;;;;15.48;5.95;;;;;;;-3.10;76.27;99894.38;4959304;28;20122;-79
2022/12/14 06:46:32;;;;;;;17.27;5.68;;;;;;;-3.11;76.90;99889.38;4944310;28;20027;-79
2022/12/14 06:48:57;;;;;;;15.57;6.47;;;;;;;-3.25;76.58;99896.09;4942533;28;20066;-79
2022/12/14 06:51:24;;;;;;;17.77;7.00;;;;;;;-3.23;77.51;99894.28;4946591;28;20500;-80
2022/12/14 06:53:54;;;;;;;15.77;6.38;;;;;;;-3.16;76.59;99890.47;4942796;28;20055;-79
2022/12/14 06:56:22;;;;;;;15.88;6.50;;;;;;;-3.18;76.35;99882.13;4961507;28;20119;-78
2022/12/14 06:58:48;;;;;;;15.13;6.32;;;;;;;-3.14;76.18;99885.31;4973764;28;20047;-79
2022/12/14 07:01:19;;;;;;;16.55;6.65;;;;;;;-3.11;76.61;99882.56;4948763;28;20061;-79
2022/12/14 07:03:50;;;;;;;21.23;6.95;;;;;;;-3.29;77.57;99888.75;4937101;28;20051;-78
2022/12/14 07:06:16;;;;;;;17.75;5.30;;;;;;;-3.18;76.72;99889.75;4938134;28;20054;-78
2022/12/14 07:08:42;;;;;;;14.98;6.88;;;;;;;-3.29;77.58;99893.81;4944852;28;20043;-79
2022/12/14 07:11:10;;;;;;;17.45;6.75;;;;;;;-3.20;77.83;99883.97;4946694;28;20597;-79
2022/12/14 07:13:36;;;;;;;13.50;5.97;;;;;;;-3.24;77.89;99886.75;4956200;28;20139;-79
2022/12/14 07:16:04;;;;;;;15.27;6.88;;;;;;;-3.29;77.94;99881.16;4940166;28;20053;-79
2022/12/14 07:18:30;;;;;;;19.38;7.05;;;;;;;-3.29;78.08;99886.22;4942097;28;20042;-80
2022/12/14 07:21:10;;;;;;;14.57;6.50;;;;;;;-3.20;77.06;99885.66;4929257;28;20471;-78
2022/12/14 07:23:37;;;;;;;17.27;6.68;;;;;;;-3.22;77.30;99883.22;4950307;28;20062;-79
2022/12/14 07:26:06;;;;;;;16.60;6.45;;;;;;;-3.19;77.51;99889.84;4975647;28;20788;-79
2022/12/14 07:28:31;;;;;;;16.73;6.88;;;;;;;-3.21;77.54;99891.66;4944190;28;20043;-80
2022/12/14 07:30:59;;;;;;;18.10;7.65;;;;;;;-3.10;77.41;99893.56;4950172;28;20393;-80
2022/12/14 07:33:25;;;;;;;21.70;7.03;;;;;;;-3.06;76.81;99895.00;4953174;28;20164;-80
2022/12/14 07:35:51;;;;;;;15.70;6.40;;;;;;;-3.06;76.50;99888.19;4947109;28;20075;-80
2022/12/14 07:38:17;;;;;;;14.45;6.75;;;;;;;-3.01;76.30;99893.81;4980448;28;20063;-79
2022/12/14 07:40:43;;;;;;;15.95;6.63;;;;;;;-3.04;76.62;99896.53;4951911;28;20071;-80
2022/12/14 07:43:09;;;;;;;19.95;6.95;;;;;;;-3.14;76.97;99901.34;4942988;28;20518;-80
2022/12/14 07:45:35;;;;;;;14.45;6.75;;;;;;;-3.12;77.78;99913.94;4958336;28;20188;-79
2022/12/14 07:48:00;;;;;;;14.63;6.32;;;;;;;-3.04;76.91;99909.22;4946426;28;20051;-79
2022/12/14 07:50:26;;;;;;;18.80;6.93;;;;;;;-2.99;76.97;99912.31;4941052;28;20031;-79
2022/12/14 07:52:51;;;;;;;20.58;8.40;;;;;;;-3.04;77.39;99906.69;4938934;28;20047;-80
2022/12/14 07:55:17;;;;;;;18.30;6.60;;;;;;;-3.07;76.76;99911.13;4948263;28;20031;-78
2022/12/14 07:57:42;;;;;;;13.68;6.30;;;;;;;-3.10;77.50;99917.19;4943447;28;20055;-79
2022/12/14 08:00:08;;;;;;;16.75;7.07;;;;;;;-3.01;77.36;99905.72;4950188;28;20046;-79
2022/12/14 08:02:37;;;;;;;18.98;7.57;;;;;;;-3.18;78.37;99915.09;4940472;28;20514;-80
2022/12/14 08:05:02;;;;;;;17.83;7.38;;;;;;;-3.12;78.54;99906.34;4947540;28;20047;-81
2022/12/14 08:07:30;;;;;;;17.75;7.03;;;;;;;-3.19;78.06;99900.78;4943749;28;20035;-78
2022/12/14 08:09:55;;;;;;;15.73;7.10;;;;;;;-3.18;78.49;99904.16;4946758;28;20040;-78
2022/12/14 08:12:21;;;;;;;19.80;6.95;;;;;;;-3.13;78.56;99905.53;4942232;28;20039;-80
2022/12/14 08:14:47;;;;;;;13.63;6.10;;;;;;;-3.16;78.66;99910.75;4940470;28;20094;-79
2022/12/14 08:17:12;;;;;;;16.15;7.07;;;;;;;-3.14;79.04;99915.75;4945430;28;20040;-79
2022/12/14 08:19:38;;;;;;;17.52;7.22;;;;;;;-3.10;78.46;99912.13;4945786;28;20098;-79
2022/12/14 08:22:03;;;;;;;15.27;7.28;;;;;;;-3.16;78.56;99915.03;4946620;28;20031;-80
2022/12/14 08:24:29;;;;;;;16.17;6.95;;;;;;;-2.98;78.65;99919.00;4946946;28;20035;-80
2022/12/14 08:26:54;;;;;;;15.20;6.55;;;;;;;-3.11;78.85;99922.34;4947441;28;20069;-80
2022/12/14 08:29:21;;;;;;;15.23;7.05;;;;;;;-3.04;78.94;99926.97;4945111;28;20765;-79
2022/12/14 08:31:46;;;;;;;24.25;7.57;;;;;;;-2.89;77.95;99925.25;4943666;28;20083;-79
2022/12/14 08:34:12;;;;;;;16.33;6.68;;;;;;;-2.90;78.25;99927.88;4945420;28;20038;-79
2022/12/14 08:36:37;;;;;;;15.90;7.28;;;;;;;-2.99;78.12;99927.53;4947367;28;20091;-79
2022/12/14 08:39:06;;;;;;;17.33;6.18;;;;;;;-2.98;78.27;99926.59;4954549;28;20039;-79
2022/12/14 08:41:32;;;;;;;19.00;6.72;;;;;;;-2.93;77.65;99923.81;4962435;28;20142;-78
2022/12/14 08:43:59;;;;;;;17.20;6.88;;;;;;;-2.91;76.68;99919.47;4939351;28;20501;-79
2022/12/14 08:46:27;;;;;;;22.70;6.78;;;;;;;-2.81;76.87;99924.81;4955128;28;20030;-80
2022/12/14 08:48:54;;;;;;;19.15;6.35;;;;;;;-2.70;76.32;99924.16;4962943;28;20040;-79
2022/12/14 08:51:20;;;;;;;14.73;6.63;;;;;;;-2.86;76.38;99922.56;4941440;28;20023;-80
2022/12/14 08:53:46;;;;;;;15.68;6.72;;;;;;;-2.82;76.53;99929.06;4945135;28;20051;-80
2022/12/14 08:56:15;;;;;;;14.13;6.78;;;;;;;-2.80;76.33;99931.53;4969924;28;20046;-79
2022/12/14 08:58:41;;;;;;;20.83;7.03;;;;;;;-2.85;76.80;99928.44;4954581;28;20077;-78
2022/12/14 09:01:12;;;;;;;14.75;6.72;;;;;;;-2.84;77.36;99932.63;4955251;28;20078;-80
2022/12/14 09:03:39;;;;;;;15.70;6.93;;;;;;;-2.76;77.33;99923.63;4956950;28;20042;-81
2022/12/14 09:06:07;;;;;;;20.75;7.57;;;;;;;-2.82;77.77;99926.53;4954115;28;20035;-80
2022/12/14 09:08:33;;;;;;;15.57;6.60;;;;;;;-2.85;78.35;99929.25;4952033;28;20535;-80
2022/12/14 09:11:00;;;;;;;19.33;7.07;;;;;;;-2.83;78.91;99926.63;4947548;28;20039;-80
2022/12/14 09:13:26;;;;;;;15.80;6.28;;;;;;;-2.84;79.18;99933.41;4952354;28;20430;-80
2022/12/14 09:16:07;;;;;;;19.15;7.00;;;;;;;-2.81;79.37;99935.75;4950438;28;20495;-80
2022/12/14 09:18:33;;;;;;;15.52;6.75;;;;;;;-2.75;78.91;99932.03;4946161;28;20043;-79
2022/12/14 09:20:59;;;;;;;15.52;7.28;;;;;;;-2.63;78.04;99938.13;4944085;28;20482;-80
2022/12/14 09:23:27;;;;;;;16.40;7.53;;;;;;;-2.74;78.68;99938.75;4951807;28;20058;-79
2022/12/14 09:26:11;;;;;;;22.55;7.32;;;;;;;-2.65;78.72;99939.94;4987674;28;20639;-79
2022/12/14 09:28:38;;;;;;;16.42;6.75;;;;;;;-2.65;78.33;99937.41;4952365;28;20051;-79
2022/12/14 09:31:12;;;;;;;17.00;7.00;;;;;;;-2.62;77.98;99940.56;4951648;28;20087;-80
2022/12/14 09:33:38;;;;;;;15.82;6.82;;;;;;;-2.60;78.26;99943.84;4953218;28;20153;-79
2022/12/14 09:36:11;;;;;;;15.52;6.43;;;;;;;-2.60;78.81;99943.00;4970305;28;20094;-80
2022/12/14 09:38:38;;;;;;;16.05;7.50;;;;;;;-2.51;78.77;99944.19;4954054;28;20039;-78
2022/12/14 09:41:34;;;;;;;19.70;7.60;;;;;;;-2.40;78.17;99944.34;4953589;28;20058;-78
2022/12/14 09:44:09;;;;;;;19.33;7.47;;;;;;;-2.24;77.88;99952.66;4950464;28;20051;-80
2022/12/14 09:46:42;;;;;;;17.83;7.53;;;;;;;-2.16;77.23;99942.03;4967838;28;20096;-79
2022/12/14 09:49:40;;;;;;;18.33;7.28;;;;;;;-2.06;76.53;99950.69;4952657;28;20043;-79
2022/12/14 09:52:12;;;;;;;17.70;8.07;;;;;;;-2.02;76.61;99948.78;4946447;28;20101;-79
2022/12/14 09:54:38;;;;;;;22.13;8.52;;;;;;;-2.00;76.18;99941.88;4955638;28;20046;-80
2022/12/14 09:57:13;;;;;;;17.80;7.90;;;;;;;-1.96;75.90;99943.31;4951919;28;20122;-80
2022/12/14 09:59:38;;;;;;;16.52;7.57;;;;;;;-1.88;74.46;99943.66;4950102;28;20043;-79
2022/12/14 10:02:21;;;;;;;16.02;8.38;;;;;;;-1.89;73.79;99942.00;4953671;28;20593;-79
2022/12/14 10:05:10;;;;;;;17.20;7.47;;;;;;;-1.97;74.11;99941.69;4951276;28;20066;-79
2022/12/14 10:07:46;;;;;;;18.83;6.95;;;;;;;-1.93;74.67;99944.84;4964625;28;20030;-79
2022/12/14 10:10:27;;;;;;;13.85;6.47;;;;;;;-1.92;75.19;99941.38;4948726;28;20047;-82
2022/12/14 10:13:15;;;;;;;21.10;7.70;;;;;;;-1.80;72.88;99941.44;4940262;28;20082;-79
2022/12/14 10:15:48;;;;;;;17.02;7.47;;;;;;;-1.81;72.51;99944.06;4952824;28;20039;-79
2022/12/14 10:18:23;;;;;;;;;;;;;;;-1.89;72.75;99943.75;4947692;28;20050;-79
2022/12/14 10:21:03;;;;;;;21.38;7.63;;;;;;;-1.84;72.53;99942.53;4981110;28;20001;-80
2022/12/14 10:23:30;;;;;;;17.45;7.65;;;;;;;-1.80;71.54;99941.44;4949038;28;20066;-78
2022/12/14 10:26:11;;;;;;;16.65;7.95;;;;;;;-1.89;72.47;99947.09;4952898;28;20039;-79
2022/12/14 10:28:50;;;;;;;18.73;8.43;;;;;;;-1.84;72.70;99947.63;4949694;28;20138;-79
2022/12/14 10:31:43;;;;;;;18.40;7.60;;;;;;;-1.88;73.00;99946.19;4948016;28;20039;-79
2022/12/14 10:34:19;;;;;;;;;;;;;;;-1.71;71.84;99940.03;4977490;28;20051;-79
2022/12/14 10:36:50;;;;;;;23.38;8.48;;;;;;;-1.76;72.03;99939.50;4961265;28;19953;-79
2022/12/14 10:40:00;;;;;;;21.30;8.68;;;;;;;-1.67;70.65;99936.38;4949207;28;20138;-78
2022/12/14 10:42:41;;;;;;;23.42;8.50;;;;;;;-1.81;72.81;99946.59;4946298;28;20471;-78
2022/12/14 10:45:55;;;;;;;17.50;7.45;;;;;;;-1.86;73.15;99934.19;4949654;28;20035;-78
2022/12/14 10:48:36;;;;;;;;;;;;;;;-1.85;73.25;99943.44;4956257;28;20038;-79
2022/12/14 10:51:18;;;;;;;17.85;7.63;;;;;;;-1.83;73.16;99923.84;4925415;28;20971;-79
2022/12/14 10:53:50;;;;;;;25.13;8.45;;;;;;;-1.66;72.32;99930.38;4950060;28;20512;-79
2022/12/14 10:56:20;;;;;;;19.27;8.60;;;;;;;-1.67;72.91;99928.75;4952267;28;20050;-78
2022/12/14 10:59:17;;;;;;;21.75;8.45;;;;;;;-1.67;71.23;99928.75;4947426;28;20054;-79
2022/12/14 11:01:48;;;;;;;19.40;8.65;;;;;;;-1.55;71.17;99923.78;4963296;28;20043;-78
2022/12/14 11:04:54;;;;;;;14.77;7.82;;;;;;;-1.50;72.72;99927.66;4961677;28;20405;-80
2022/12/14 11:07:22;;;;;;;22.20;8.80;;;;;;;-1.53;71.98;99929.59;4929501;28;20102;-79
2022/12/14 11:09:48;;;;;;;18.38;8.40;;;;;;;-1.48;71.91;99925.03;4943984;28;20044;-79
2022/12/14 11:12:24;;;;;;;23.10;8.30;;;;;;;-1.39;70.69;99927.78;4945853;28;20035;-83
2022/12/14 11:14:57;;;;;;;20.70;9.55;;;;;;;-1.47;69.36;99912.22;4961399;28;20047;-79
2022/12/14 11:17:37;;;;;;;21.05;9.10;;;;;;;-1.46;70.40;99915.56;4944699;28;20038;-79
2022/12/14 11:20:15;;;;;;;17.52;8.13;;;;;;;-1.53;71.16;99915.13;4969449;28;20062;-79
2022/12/14 11:22:50;;;;;;;17.83;8.23;;;;;;;-1.40;71.39;99912.63;4941884;28;20829;-79
2022/12/14 11:25:29;;;;;;;16.73;8.98;;;;;;;-1.35;71.32;99912.31;4963436;28;20054;-79
2022/12/14 11:28:01;;;;;;;20.83;8.63;;;;;;;-1.38;71.43;99916.69;4965407;28;20047;-79
2022/12/14 11:30:28;;;;;;;29.05;8.07;;;;;;;-1.35;71.37;99925.84;4948993;28;20198;-79
2022/12/14 11:32:54;;;;;;;21.70;8.30;;;;;;;-1.31;70.98;99923.94;4955890;28;20113;-79
2022/12/14 11:35:20;;;;;;;29.35;9.23;;;;;;;-1.28;71.33;99918.63;4966338;28;20034;-79
2022/12/14 11:37:50;;;;;;;19.10;9.35;;;;;;;-1.27;70.81;99913.44;4960936;28;20047;-78
2022/12/14 11:40:26;;;;;;;23.48;8.43;;;;;;;-1.25;71.42;99920.97;4976045;28;20106;-79
2022/12/14 11:43:02;;;;;;;24.63;9.07;;;;;;;-1.22;71.25;99921.59;4944845;28;20051;-79
2022/12/14 11:45:31;;;;;;;22.63;8.73;;;;;;;-1.22;71.79;99919.03;4943353;28;20031;-79
2022/12/14 11:48:14;;;;;;;23.27;9.20;;;;;;;-1.13;70.30;99917.63;4946597;28;20062;-78
2022/12/14 11:50:46;;;;;;;20.50;9.10;;;;;;;-1.05;69.97;99927.28;4956173;28;20039;-80
2022/12/14 11:53:14;;;;;;;20.05;9.48;;;;;;;-1.06;70.47;99920.56;4959077;28;20043;-78
2022/12/14 11:55:47;;;;;;;22.48;10.02;;;;;;;-1.08;69.93;99930.03;4943515;28;20060;-79